首页
METAR-TAF:

METAR-TAF

机场 :

Decimomannu, 意大利

纬度: 39-21N, 经度: 008-58E, 海拔: 29米

当前天气观测

该预报发布于1小时和12分钟前的11:55 UTC
风速16节,风向东南
温度 24°C
湿度 69%
气压 1019 hPa
能见度10公里或以上
少量云层高于3000英尺

METAR: LIED 211155Z 14016KT 9999 FEW030 24/18 Q1019 RMK FEW VIS MIN 9999 WIND THR35 15018KT WIND THR17 /////KT BLU

时间: 15:07 (13:07 UTC)

预报

该预报发布于2小时和7分钟前的11:00 UTC
预报有效从21日的 12点(UTC)到 21日的 21点(UTC)
风速15节,风向东南
能见度10公里或以上
少量云层高于2000英尺
散云层高于3000英尺

TAF: LIED 211100Z 2112/2121 13015KT 9999 FEW020 SCT030

超过4000个机场的气象观测和天气预报(METAR&TAF报告)。

可查询的气象台以黄色和红色小点在地图上表示。

将鼠标移到小点上方,可查看气象台名称。

然后点击查看天气观测和预报。

如需切换地图:点击带黑十字的绿色按钮放大地图;点击带横线的绿色按钮缩小地图;或者点击绿色箭头查看邻近地区的地图。


METAR-TAF: